Time;durP1;ratioP1;P1;durP2;ratioP2;P2;SDS_P1;SDS_P2;PMS_P1;PMS_P2;Temp;Humidity;BMP_temperature;BMP_pressure;BME280_temperature;BME280_humidity;BME280_pressure;Samples;Min_cycle;Max_cycle;Signal;HPM_P1;HPM_P2
2022/09/02 00:02:16;;;;;;;5.88;4.03;;;;;;;27.61;51.36;98524.03;4959342;28;20030;-70
2022/09/02 00:04:42;;;;;;;6.13;4.20;;;;;;;27.55;51.09;98513.44;4944004;28;20068;-70
2022/09/02 00:07:07;;;;;;;5.50;3.80;;;;;;;27.58;51.49;98521.81;4959793;28;20058;-70
2022/09/02 00:09:32;;;;;;;6.53;4.20;;;;;;;27.62;51.34;98522.16;4943524;28;20038;-70
2022/09/02 00:11:58;;;;;;;7.25;4.13;;;;;;;27.61;51.31;98524.03;4975995;28;20070;-70
2022/09/02 00:14:27;;;;;;;6.75;4.00;;;;;;;27.60;51.26;98527.75;4975882;28;20507;-70
2022/09/02 00:16:52;;;;;;;7.95;4.35;;;;;;;27.60;51.13;98525.06;4959356;28;20050;-70
2022/09/02 00:19:23;;;;;;;5.57;4.03;;;;;;;27.60;51.26;98525.06;4975311;28;20038;-70
2022/09/02 00:21:50;;;;;;;6.30;4.15;;;;;;;27.59;51.02;98526.13;4943356;28;20034;-70
2022/09/02 00:24:16;;;;;;;6.43;3.90;;;;;;;27.61;50.92;98526.72;4943526;28;20055;-70
2022/09/02 00:26:42;;;;;;;7.75;4.20;;;;;;;27.59;51.11;98514.59;4959603;28;20161;-71
2022/09/02 00:29:08;;;;;;;7.72;4.00;;;;;;;27.62;51.18;98514.13;4943266;28;20087;-72
2022/09/02 00:31:35;;;;;;;6.97;3.95;;;;;;;27.61;51.25;98524.03;4943145;28;20117;-71
2022/09/02 00:34:01;;;;;;;7.60;4.15;;;;;;;27.61;51.19;98524.03;4975446;28;20027;-71
2022/09/02 00:36:26;;;;;;;6.32;4.13;;;;;;;27.56;51.07;98510.53;4975141;28;20390;-71
2022/09/02 00:38:52;;;;;;;6.82;4.00;;;;;;;27.59;51.29;98519.94;4975209;28;20114;-71
2022/09/02 00:41:19;;;;;;;6.93;3.90;;;;;;;27.59;51.25;98519.94;4975482;28;20034;-71
2022/09/02 00:44:08;;;;;;;6.88;4.20;;;;;;;27.56;51.54;98515.03;4959306;28;20030;-71
2022/09/02 00:46:34;;;;;;;5.93;4.20;;;;;;;27.49;51.35;98509.00;4946039;28;20038;-70
2022/09/02 00:49:25;;;;;;;6.40;4.00;;;;;;;27.55;51.24;98519.59;4943036;28;20030;-71
2022/09/02 00:51:54;;;;;;;7.25;4.10;;;;;;;27.55;51.25;98519.59;4961085;28;20501;-71
2022/09/02 00:54:21;;;;;;;6.78;4.28;;;;;;;27.49;51.12;98506.31;4958846;28;20484;-71
2022/09/02 00:56:47;;;;;;;5.72;3.85;;;;;;;27.54;51.45;98514.47;4959275;28;20031;-71
2022/09/02 00:59:17;;;;;;;5.07;3.80;;;;;;;27.55;51.10;98511.56;4942914;28;20030;-71
2022/09/02 01:01:43;;;;;;;6.47;4.10;;;;;;;27.56;51.02;98512.38;4943106;28;20026;-71
2022/09/02 01:04:08;;;;;;;5.72;3.80;;;;;;;27.53;51.08;98510.97;4973988;28;20042;-71
2022/09/02 01:06:34;;;;;;;9.20;4.07;;;;;;;27.52;50.96;98508.53;4958845;28;20414;-71
2022/09/02 01:09:07;;;;;;;5.35;4.05;;;;;;;27.51;50.94;98502.34;4959275;28;20062;-71
2022/09/02 01:11:42;;;;;;;6.72;4.00;;;;;;;27.54;50.96;98515.28;4943565;28;20476;-71
2022/09/02 01:14:08;;;;;;;4.30;3.55;;;;;;;27.52;50.71;98508.53;4944172;28;20122;-71
2022/09/02 01:16:55;;;;;;;6.47;3.90;;;;;;;27.54;50.82;98509.91;4978038;28;20050;-71
2022/09/02 01:19:24;;;;;;;4.95;3.58;;;;;;;27.55;50.99;98511.56;4962217;28;20035;-71
2022/09/02 01:21:50;;;;;;;5.45;3.58;;;;;;;27.55;50.72;98516.13;4946666;28;20092;-71
2022/09/02 01:24:16;;;;;;;5.20;3.55;;;;;;;27.57;50.55;98512.13;4946373;28;20031;-71
2022/09/02 01:26:42;;;;;;;6.28;4.18;;;;;;;27.57;50.89;98517.50;4946193;28;20041;-71
2022/09/02 01:29:07;;;;;;;7.13;4.10;;;;;;;27.57;50.70;98512.13;4978583;28;20478;-71
2022/09/02 01:31:33;;;;;;;5.60;3.75;;;;;;;27.58;50.89;98510.28;4962457;28;20030;-70
2022/09/02 01:33:58;;;;;;;4.68;3.75;;;;;;;27.56;50.70;98510.53;4977725;28;20031;-70
2022/09/02 01:36:24;;;;;;;4.60;3.53;;;;;;;27.52;50.83;98505.84;4978215;28;20049;-70
2022/09/02 01:38:49;;;;;;;5.63;3.83;;;;;;;27.54;50.87;98507.22;4978113;28;20041;-70
2022/09/02 01:41:15;;;;;;;5.30;3.90;;;;;;;27.48;51.06;98500.13;4977845;28;20128;-70
2022/09/02 01:43:40;;;;;;;6.13;4.22;;;;;;;27.51;50.93;98513.06;4961804;28;20104;-71
2022/09/02 01:46:06;;;;;;;6.00;3.92;;;;;;;27.46;50.89;98498.75;4978048;28;20485;-71
2022/09/02 01:48:31;;;;;;;4.47;3.50;;;;;;;27.49;50.85;98509.81;4961917;28;20457;-71
2022/09/02 01:50:59;;;;;;;5.03;3.72;;;;;;;27.50;50.81;98514.13;4977992;28;20030;-71
2022/09/02 01:53:24;;;;;;;4.63;3.97;;;;;;;27.49;50.88;98509.81;4945840;28;20117;-71
2022/09/02 01:55:50;;;;;;;5.22;3.90;;;;;;;27.50;50.94;98505.25;4945630;28;20501;-72
2022/09/02 01:58:15;;;;;;;5.80;3.58;;;;;;;27.50;50.91;98499.88;4961460;28;20034;-70
2022/09/02 02:00:41;;;;;;;6.43;3.90;;;;;;;27.50;50.61;98510.63;4978037;28;20073;-70
2022/09/02 02:03:06;;;;;;;6.25;3.95;;;;;;;27.50;50.79;98511.44;4961637;28;20117;-70
2022/09/02 02:05:32;;;;;;;6.70;3.40;;;;;;;27.50;50.78;98502.56;4961619;28;20033;-70
2022/09/02 02:07:57;;;;;;;5.38;3.58;;;;;;;27.50;50.70;98500.72;4946083;28;20062;-70
2022/09/02 02:10:23;;;;;;;5.22;3.78;;;;;;;27.47;50.53;98500.34;4958405;28;20026;-71
2022/09/02 02:12:49;;;;;;;4.90;3.65;;;;;;;27.50;50.57;98503.41;4980630;28;20096;-71
2022/09/02 02:15:16;;;;;;;5.05;3.65;;;;;;;27.51;50.72;98498.84;4980792;28;20135;-70
2022/09/02 02:17:41;;;;;;;5.57;3.33;;;;;;;27.44;50.76;98482.91;4980455;28;20117;-70
2022/09/02 02:20:08;;;;;;;6.30;3.92;;;;;;;27.51;50.64;98502.34;4997283;28;20092;-70
2022/09/02 02:22:33;;;;;;;4.80;3.53;;;;;;;27.51;50.84;98496.97;4980627;28;20378;-70
2022/09/02 02:24:59;;;;;;;6.60;3.90;;;;;;;27.49;50.93;98496.41;4980092;28;20037;-70
2022/09/02 02:27:24;;;;;;;4.47;3.42;;;;;;;27.48;50.64;98491.28;4980547;28;20048;-70
2022/09/02 02:29:50;;;;;;;5.40;3.55;;;;;;;27.46;50.78;98501.41;4996335;28;20030;-70
2022/09/02 02:32:17;;;;;;;5.43;3.80;;;;;;;27.43;50.96;98494.66;4996576;28;20034;-70
2022/09/02 02:34:43;;;;;;;5.47;3.53;;;;;;;27.42;50.71;98493.84;5014238;28;20041;-70
2022/09/02 02:37:11;;;;;;;6.82;3.65;;;;;;;27.40;50.97;98487.88;4964225;28;20272;-70
2022/09/02 02:39:36;;;;;;;4.53;3.58;;;;;;;27.41;50.80;98486.84;4996823;28;20470;-70
2022/09/02 02:42:02;;;;;;;7.95;3.45;;;;;;;27.40;50.85;98479.84;5013722;28;20038;-70
2022/09/02 02:44:28;;;;;;;4.57;3.55;;;;;;;27.42;50.99;98482.28;4963766;28;20417;-70
2022/09/02 02:46:54;;;;;;;6.88;3.72;;;;;;;27.36;50.69;98475.22;4996535;28;20053;-71
2022/09/02 02:49:19;;;;;;;5.07;3.65;;;;;;;27.38;50.93;98481.94;4979867;28;20041;-71
2022/09/02 02:51:45;;;;;;;5.07;3.38;;;;;;;27.33;50.99;98473.00;4979610;28;20115;-71
2022/09/02 02:54:13;;;;;;;4.93;3.70;;;;;;;27.35;50.85;98481.59;4980019;28;20069;-71
2022/09/02 02:56:38;;;;;;;4.78;3.72;;;;;;;27.33;50.66;98473.78;4980659;28;20365;-71
2022/09/02 02:59:04;;;;;;;5.95;3.53;;;;;;;27.34;50.55;98480.81;4963845;28;20033;-71
2022/09/02 03:01:30;;;;;;;4.65;3.65;;;;;;;27.31;50.64;98475.91;4995793;28;20041;-71
2022/09/02 03:03:56;;;;;;;7.00;3.80;;;;;;;27.30;50.64;98476.91;4996185;28;20026;-71
2022/09/02 03:06:21;;;;;;;5.30;3.90;;;;;;;27.30;50.64;98482.28;4963223;28;20040;-71
2022/09/02 03:08:47;;;;;;;5.70;3.60;;;;;;;27.26;50.90;98473.03;4980015;28;20041;-71
2022/09/02 03:11:14;;;;;;;6.32;3.80;;;;;;;27.29;50.62;98475.25;4963820;28;20038;-70
2022/09/02 03:13:39;;;;;;;7.20;3.92;;;;;;;27.30;51.03;98470.75;4963473;28;20508;-71
2022/09/02 03:16:05;;;;;;;5.50;3.55;;;;;;;27.24;50.57;98469.78;4995688;28;20045;-71
2022/09/02 03:18:31;;;;;;;4.97;3.67;;;;;;;27.25;50.95;98477.59;4979347;28;20429;-71
2022/09/02 03:20:57;;;;;;;4.95;3.60;;;;;;;27.24;50.58;98475.97;4980036;28;20405;-71
2022/09/02 03:23:22;;;;;;;7.88;3.85;;;;;;;27.24;50.65;98472.47;4979416;28;20034;-71
2022/09/02 03:25:48;;;;;;;3.92;3.45;;;;;;;27.19;50.87;98467.00;4979564;28;20456;-72
2022/09/02 03:28:14;;;;;;;4.38;3.22;;;;;;;27.21;50.79;98475.63;4995908;28;20032;-71
2022/09/02 03:30:40;;;;;;;4.65;3.63;;;;;;;27.21;50.60;98475.63;4995893;28;20044;-70
2022/09/02 03:33:05;;;;;;;5.03;3.40;;;;;;;27.20;50.70;98472.13;4962942;28;20476;-70
2022/09/02 03:35:31;;;;;;;6.25;3.70;;;;;;;27.21;50.88;98475.63;4995656;28;20037;-69
2022/09/02 03:37:57;;;;;;;4.95;3.60;;;;;;;27.17;50.81;98472.59;4978535;28;20485;-70
2022/09/02 03:40:24;;;;;;;6.65;3.58;;;;;;;27.20;50.58;98479.34;4979288;28;20049;-69
2022/09/02 03:42:50;;;;;;;4.68;3.60;;;;;;;27.17;50.82;98480.63;4963394;28;20116;-70
2022/09/02 03:45:15;;;;;;;7.20;3.58;;;;;;;27.13;50.64;98484.81;4979276;28;20026;-71
2022/09/02 03:47:49;;;;;;;4.97;3.35;;;;;;;27.14;50.71;98491.00;4962974;28;20437;-71
2022/09/02 03:50:16;;;;;;;4.38;3.50;;;;;;;27.16;50.62;98497.75;4981339;28;20057;-73
2022/09/02 03:52:42;;;;;;;4.50;3.58;;;;;;;27.15;50.74;98498.81;4994862;28;20107;-73
2022/09/02 03:55:07;;;;;;;5.28;3.53;;;;;;;27.17;50.68;98498.56;4962561;28;20485;-72
2022/09/02 03:57:34;;;;;;;4.95;3.40;;;;;;;27.16;50.54;98497.75;4978724;28;20042;-72
2022/09/02 04:00:00;;;;;;;4.80;3.60;;;;;;;27.14;50.51;98497.16;4962975;28;20083;-72
2022/09/02 04:02:26;;;;;;;5.85;3.60;;;;;;;27.15;50.74;98506.00;4979112;28;20025;-77
2022/09/02 04:04:51;;;;;;;5.40;3.20;;;;;;;27.18;51.04;98518.94;4962818;28;20121;-72
2022/09/02 04:07:17;;;;;;;7.03;3.60;;;;;;;27.19;51.13;98521.41;5012614;28;20034;-76
2022/09/02 04:09:42;;;;;;;7.30;3.63;;;;;;;27.18;51.08;98506.34;4947613;28;20617;-73
2022/09/02 04:12:08;;;;;;;5.30;3.47;;;;;;;27.23;51.16;98521.75;4959372;28;20042;-74
2022/09/02 04:14:34;;;;;;;6.45;3.70;;;;;;;27.08;51.60;98514.16;4978603;28;20038;-78
2022/09/02 04:16:59;;;;;;;7.00;3.50;;;;;;;27.02;51.64;98513.19;4979364;28;20054;-76
2022/09/02 04:19:25;;;;;;;9.93;3.60;;;;;;;27.01;51.92;98505.38;4959604;28;20509;-77
2022/09/02 04:21:51;;;;;;;9.70;3.60;;;;;;;26.90;51.59;98510.50;4959574;28;20034;-76
2022/09/02 04:24:16;;;;;;;6.38;3.53;;;;;;;26.81;52.44;98501.16;4992946;28;20470;-76
2022/09/02 04:26:42;;;;;;;6.93;3.10;;;;;;;26.85;52.00;98506.88;4959591;28;20038;-76
2022/09/02 04:29:08;;;;;;;10.57;3.67;;;;;;;26.81;51.91;98514.53;4976343;28;20026;-76
2022/09/02 04:31:34;;;;;;;10.85;3.38;;;;;;;26.71;51.87;98499.03;4961916;28;20041;-77
2022/09/02 04:33:59;;;;;;;8.82;3.25;;;;;;;26.77;51.92;98504.53;4993795;28;20045;-76
2022/09/02 04:36:25;;;;;;;8.93;3.17;;;;;;;26.83;51.90;98511.63;4961302;28;20038;-76
2022/09/02 04:38:51;;;;;;;6.50;3.15;;;;;;;26.84;51.74;98511.41;4962002;28;20037;-79
2022/09/02 04:41:22;;;;;;;7.88;3.50;;;;;;;26.85;51.45;98518.41;4977826;28;20058;-77
2022/09/02 04:43:48;;;;;;;11.77;2.97;;;;;;;26.85;52.08;98521.09;4978325;28;20033;-77
2022/09/02 04:46:14;;;;;;;8.23;3.17;;;;;;;26.90;51.45;98520.41;4958396;28;20394;-78
2022/09/02 04:48:40;;;;;;;5.05;2.92;;;;;;;27.04;51.38;98518.31;4960375;28;20031;-76
2022/09/02 04:51:06;;;;;;;9.15;3.45;;;;;;;27.12;50.77;98518.03;4961910;28;20026;-76
2022/09/02 04:53:32;;;;;;;11.10;3.17;;;;;;;27.22;50.33;98523.63;4978862;28;20172;-78
2022/09/02 04:55:58;;;;;;;7.78;3.47;;;;;;;27.17;50.43;98518.13;4946183;28;20544;-77
2022/09/02 04:58:23;;;;;;;7.63;3.08;;;;;;;27.14;50.61;98528.50;4962155;28;20110;-76
2022/09/02 05:00:49;;;;;;;5.95;2.83;;;;;;;27.11;50.04;98528.97;4962695;28;20066;-76
2022/09/02 05:03:15;;;;;;;11.80;3.30;;;;;;;26.99;50.34;98520.88;4978075;28;20034;-76
2022/09/02 05:05:42;;;;;;;11.43;3.13;;;;;;;27.01;50.31;98524.13;4946213;28;20486;-79
2022/09/02 05:08:08;;;;;;;13.00;3.25;;;;;;;27.31;49.40;98525.97;4962695;28;20022;-77
2022/09/02 05:10:34;;;;;;;9.27;3.25;;;;;;;27.13;50.06;98516.94;4963746;28;20030;-75
2022/09/02 05:12:59;;;;;;;6.93;3.03;;;;;;;27.04;49.80;98524.53;4977487;28;20100;-77
2022/09/02 05:15:25;;;;;;;8.98;3.20;;;;;;;27.06;50.66;98532.31;4960174;28;20041;-76
2022/09/02 05:17:51;;;;;;;5.50;2.90;;;;;;;27.01;50.72;98524.97;4963485;28;20101;-76
2022/09/02 05:20:17;;;;;;;4.93;3.00;;;;;;;27.02;50.02;98531.13;4981023;28;20090;-77
2022/09/02 05:22:42;;;;;;;10.93;3.08;;;;;;;26.97;50.09;98539.84;4981100;28;20037;-77
2022/09/02 05:25:08;;;;;;;8.52;2.85;;;;;;;26.87;50.66;98528.91;4981290;28;20073;-76
2022/09/02 05:27:34;;;;;;;8.43;3.15;;;;;;;26.81;50.38;98533.28;4946095;28;20092;-76
2022/09/02 05:30:00;;;;;;;6.40;3.10;;;;;;;26.63;51.02;98538.66;4954553;28;20033;-74
2022/09/02 05:32:26;;;;;;;8.63;2.85;;;;;;;26.60;51.30;98531.91;4980521;28;20026;-75
2022/09/02 05:34:53;;;;;;;9.48;3.15;;;;;;;26.52;50.94;98541.06;4981128;28;20062;-76
2022/09/02 05:37:18;;;;;;;6.35;3.17;;;;;;;26.47;51.16;98542.75;4980554;28;20092;-75
2022/09/02 05:39:44;;;;;;;10.68;3.20;;;;;;;26.51;51.56;98536.75;4997143;28;20038;-76
2022/09/02 05:42:09;;;;;;;5.95;2.83;;;;;;;26.57;51.17;98542.22;4980732;28;20121;-76
2022/09/02 05:44:36;;;;;;;8.10;2.88;;;;;;;26.50;51.25;98535.13;4964239;28;20041;-75
2022/09/02 05:47:02;;;;;;;7.20;2.90;;;;;;;26.49;51.33;98546.06;4980738;28;20032;-76
2022/09/02 05:49:27;;;;;;;8.38;2.92;;;;;;;26.39;51.57;98535.84;4996641;28;20046;-74
2022/09/02 05:51:55;;;;;;;8.93;3.22;;;;;;;26.47;51.50;98538.25;4980452;28;20092;-75
2022/09/02 05:54:27;;;;;;;7.53;2.95;;;;;;;26.51;51.31;98534.06;4998154;28;20034;-75
2022/09/02 05:56:54;;;;;;;5.40;2.97;;;;;;;26.58;51.03;98535.84;5000832;28;20061;-76
2022/09/02 05:59:21;;;;;;;14.15;2.83;;;;;;;26.69;50.67;98532.44;4992076;28;20511;-76
2022/09/02 06:01:47;;;;;;;6.00;2.92;;;;;;;26.81;50.43;98530.63;4960593;28;20026;-76
2022/09/02 06:04:13;;;;;;;7.72;2.90;;;;;;;26.94;50.38;98531.47;4963130;28;20041;-74
2022/09/02 06:06:39;;;;;;;7.07;2.83;;;;;;;27.12;50.21;98531.41;4984179;28;20529;-75
2022/09/02 06:09:07;;;;;;;12.57;3.35;;;;;;;27.48;49.27;98537.66;4986184;28;20128;-77
2022/09/02 06:11:38;;;;;;;9.18;3.17;;;;;;;27.79;48.00;98533.81;4986526;28;20022;-78
2022/09/02 06:14:06;;;;;;;11.70;2.72;;;;;;;28.05;47.29;98520.16;5001379;28;20038;-79
2022/09/02 06:16:33;;;;;;;5.75;2.90;;;;;;;28.02;47.20;98526.81;4955126;28;20023;-76
2022/09/02 06:18:59;;;;;;;11.40;2.67;;;;;;;28.00;47.40;98534.28;4952307;28;20030;-76
2022/09/02 06:21:24;;;;;;;6.70;2.40;;;;;;;27.87;47.76;98534.53;4957093;28;20037;-76
2022/09/02 06:23:51;;;;;;;6.82;2.80;;;;;;;27.90;48.10;98540.22;4985112;28;20048;-76
2022/09/02 06:26:17;;;;;;;6.85;2.78;;;;;;;27.83;47.88;98538.72;4985898;28;20034;-77
2022/09/02 06:28:44;;;;;;;5.35;3.03;;;;;;;27.94;47.82;98541.44;4967799;28;20034;-75
2022/09/02 06:31:12;;;;;;;10.65;3.25;;;;;;;28.02;47.37;98547.47;4959976;28;20022;-75
2022/09/02 06:33:39;;;;;;;6.15;2.58;;;;;;;28.09;47.22;98545.50;4961754;28;20026;-81
2022/09/02 06:36:10;;;;;;;7.97;2.67;;;;;;;28.22;47.26;98555.94;4957308;28;20026;-75
2022/09/02 06:38:37;;;;;;;6.93;3.00;;;;;;;28.27;46.89;98553.38;4955762;28;20273;-74
2022/09/02 06:41:05;;;;;;;6.03;2.25;;;;;;;28.24;46.87;98539.63;4983764;28;20109;-77
2022/09/02 06:43:30;;;;;;;4.13;2.57;;;;;;;28.29;46.94;98550.44;4983902;28;20042;-75
2022/09/02 06:45:56;;;;;;;9.90;2.65;;;;;;;28.23;46.59;98554.91;4969343;28;20045;-77
2022/09/02 06:48:22;;;;;;;8.93;2.70;;;;;;;28.18;46.91;98552.13;4983221;28;20023;-75
2022/09/02 06:50:47;;;;;;;9.60;2.95;;;;;;;28.23;46.88;98552.22;4985341;28;20037;-77
2022/09/02 06:53:13;;;;;;;9.13;3.53;;;;;;;28.38;47.05;98554.41;4968545;28;20023;-76
2022/09/02 06:55:42;;;;;;;6.60;3.38;;;;;;;28.70;46.24;98553.97;4983553;28;20089;-79
2022/09/02 06:58:07;;;;;;;6.82;3.00;;;;;;;28.77;45.68;98551.16;4984897;28;20464;-75
2022/09/02 07:00:34;;;;;;;7.60;2.88;;;;;;;28.96;45.53;98549.88;4975278;28;20031;-74
2022/09/02 07:05:44;;;;;;;10.50;2.97;;;;;;;28.94;45.45;98549.31;4968971;28;20109;-73
2022/09/02 07:08:10;;;;;;;6.90;3.10;;;;;;;28.93;45.61;98545.00;4977742;28;20109;-75
2022/09/02 07:10:39;;;;;;;10.35;3.10;;;;;;;28.79;45.74;98538.31;4961725;28;20032;-75
2022/09/02 07:13:05;;;;;;;6.45;3.03;;;;;;;28.76;45.99;98555.69;4950513;28;20030;-77
2022/09/02 07:15:31;;;;;;;10.60;3.30;;;;;;;28.73;45.21;98552.69;4975581;28;20497;-75
2022/09/02 07:17:56;;;;;;;11.02;3.25;;;;;;;28.70;45.68;98551.28;4959523;28;20046;-76
2022/09/02 07:20:22;;;;;;;11.07;3.58;;;;;;;28.81;45.02;98561.19;4959305;28;20170;-75
2022/09/02 07:22:48;;;;;;;8.43;2.92;;;;;;;28.88;45.49;98553.78;4959661;28;20038;-76
2022/09/02 07:25:14;;;;;;;4.50;2.80;;;;;;;28.93;45.02;98561.13;4958939;28;20035;-75
2022/09/02 07:27:40;;;;;;;10.70;3.10;;;;;;;28.92;45.03;98559.47;4959308;28;20037;-82
2022/09/02 07:30:06;;;;;;;10.73;3.20;;;;;;;28.91;44.65;98557.03;4984657;28;20041;-75
2022/09/02 07:32:32;;;;;;;9.48;2.83;;;;;;;28.95;44.70;98558.19;4962467;28;20038;-76
2022/09/02 07:34:58;;;;;;;11.52;3.13;;;;;;;28.95;44.85;98564.38;4978679;28;20065;-74
2022/09/02 07:37:24;;;;;;;5.07;2.50;;;;;;;28.93;45.05;98558.44;4978668;28;20060;-76
2022/09/02 07:39:50;;;;;;;8.38;2.97;;;;;;;28.92;45.00;98564.03;4962569;28;20141;-78
2022/09/02 07:42:15;;;;;;;8.20;2.88;;;;;;;28.86;45.07;98560.44;4962849;28;20046;-77
2022/09/02 07:44:41;;;;;;;7.43;2.80;;;;;;;28.83;45.11;98560.94;4962665;28;20026;-76
2022/09/02 07:47:07;;;;;;;7.93;2.78;;;;;;;28.92;45.03;98553.31;4978305;28;20049;-77
2022/09/02 07:49:33;;;;;;;9.80;3.00;;;;;;;29.17;44.94;98561.00;4978354;28;20030;-76
2022/09/02 07:51:58;;;;;;;7.63;3.25;;;;;;;29.35;44.53;98554.59;4961693;28;20029;-77
2022/09/02 07:54:25;;;;;;;7.47;2.95;;;;;;;29.82;43.70;98554.28;4962435;28;20374;-74
2022/09/02 07:56:51;;;;;;;12.00;4.30;;;;;;;30.17;42.74;98563.09;4978659;28;20034;-75
2022/09/02 07:59:17;;;;;;;9.15;4.45;;;;;;;30.61;42.06;98555.03;4962307;28;20045;-75
2022/09/02 08:01:43;;;;;;;14.73;3.28;;;;;;;30.88;40.44;98563.13;4978511;28;20057;-76
2022/09/02 08:04:09;;;;;;;10.38;2.90;;;;;;;31.19;39.89;98558.88;4962253;28;20068;-75
2022/09/02 08:06:36;;;;;;;6.55;2.67;;;;;;;31.30;39.04;98559.78;4961923;28;20568;-75
2022/09/02 08:09:09;;;;;;;9.47;2.83;;;;;;;31.42;38.71;98556.88;4962214;28;20471;-75
2022/09/02 08:11:37;;;;;;;9.60;2.45;;;;;;;31.57;38.73;98564.31;4995055;28;20037;-76
2022/09/02 08:14:04;;;;;;;11.63;2.80;;;;;;;31.92;37.86;98550.25;4978431;28;20511;-74
2022/09/02 08:16:30;;;;;;;8.50;3.10;;;;;;;32.50;37.00;98554.84;4981067;28;20073;-77
2022/09/02 08:18:57;;;;;;;8.63;3.05;;;;;;;32.31;36.42;98559.09;4963525;28;20042;-76
2022/09/02 08:21:24;;;;;;;10.38;2.90;;;;;;;31.71;37.89;98551.22;4962729;28;20026;-82
2022/09/02 08:23:50;;;;;;;7.55;3.08;;;;;;;32.37;37.06;98549.94;4979850;28;20034;-79
2022/09/02 08:26:17;;;;;;;8.07;2.95;;;;;;;33.00;35.70;98547.97;4982406;28;20026;-81
2022/09/02 08:28:43;;;;;;;8.80;2.97;;;;;;;33.36;33.92;98539.88;4981604;28;20029;-78
2022/09/02 08:31:09;;;;;;;7.95;2.85;;;;;;;33.84;33.36;98544.16;4981961;28;20030;-80
2022/09/02 08:33:35;;;;;;;8.65;2.90;;;;;;;34.16;33.21;98537.56;4993044;28;20025;-82
2022/09/02 08:36:07;;;;;;;8.60;2.92;;;;;;;34.08;33.74;98526.25;4982782;28;20026;-79
2022/09/02 08:38:34;;;;;;;11.98;2.90;;;;;;;33.78;33.83;98524.44;4969047;28;20026;-78
2022/09/02 08:41:00;;;;;;;4.93;2.45;;;;;;;33.97;33.65;98518.41;4979041;28;20489;-77
2022/09/02 08:43:38;;;;;;;7.32;2.85;;;;;;;34.13;32.89;98522.69;4982253;28;20116;-77
2022/09/02 08:46:07;;;;;;;5.78;2.90;;;;;;;33.10;34.24;98519.28;4999319;28;20034;-76
2022/09/02 08:48:41;;;;;;;10.02;3.28;;;;;;;32.89;34.81;98518.47;4968260;28;20026;-75
2022/09/02 08:51:15;;;;;;;9.98;2.88;;;;;;;32.97;34.75;98509.84;5000736;28;20030;-76
2022/09/02 08:54:13;;;;;;;8.50;2.95;;;;;;;34.14;33.82;98515.38;4951573;28;20026;-77
2022/09/02 08:56:39;;;;;;;10.20;3.03;;;;;;;34.65;32.01;98517.88;4931047;29;20560;-81
2022/09/02 08:59:08;;;;;;;7.28;2.80;;;;;;;34.20;32.49;98515.06;4934496;29;20039;-80
2022/09/02 09:01:54;;;;;;;8.15;3.13;;;;;;;34.57;32.03;98503.00;4933886;29;20042;-75
2022/09/02 09:04:49;;;;;;;5.82;3.00;;;;;;;34.82;30.92;98516.69;4934567;29;20019;-79
2022/09/02 09:07:52;;;;;;;6.75;3.00;;;;;;;33.82;32.82;98495.72;4903541;29;20100;-78
2022/09/02 09:10:24;;;;;;;8.82;3.20;;;;;;;33.38;34.01;98492.81;4847562;29;20133;-79
2022/09/02 09:12:50;;;;;;;6.25;3.13;;;;;;;33.45;34.53;98498.78;4835049;29;20081;-73
2022/09/02 09:15:18;;;;;;;7.13;2.83;;;;;;;33.49;34.68;98495.22;4857468;29;20077;-73
2022/09/02 09:17:49;;;;;;;6.53;2.80;;;;;;;33.57;34.66;98493.84;4857261;29;20058;-72
2022/09/02 09:20:16;;;;;;;6.85;3.00;;;;;;;33.57;34.46;98482.22;4827266;29;20038;-72
2022/09/02 09:22:41;;;;;;;7.38;2.97;;;;;;;33.60;34.69;98481.69;4841422;29;20496;-74
2022/09/02 09:25:10;;;;;;;7.00;2.85;;;;;;;33.62;34.49;98479.50;4841827;29;20136;-72
2022/09/02 09:27:35;;;;;;;5.93;2.92;;;;;;;33.69;34.44;98478.13;4842428;29;20045;-76
2022/09/02 09:30:02;;;;;;;6.50;2.90;;;;;;;33.52;34.80;98485.75;4826605;29;20079;-73
2022/09/02 09:32:35;;;;;;;8.23;3.17;;;;;;;33.59;34.77;98483.59;4841496;29;20605;-74
2022/09/02 09:35:16;;;;;;;5.43;2.67;;;;;;;33.46;34.62;98462.50;4827550;29;20037;-74
2022/09/02 09:37:46;;;;;;;5.63;2.70;;;;;;;33.51;34.86;98471.44;4829916;29;20141;-71
2022/09/02 09:40:18;;;;;;;7.30;2.95;;;;;;;33.71;34.60;98469.78;4830118;29;20069;-73
2022/09/02 09:42:44;;;;;;;5.82;2.80;;;;;;;33.76;34.51;98471.66;4860396;29;20510;-73
2022/09/02 09:45:38;;;;;;;5.88;2.80;;;;;;;33.56;35.20;98473.31;4948893;28;20053;-73
2022/09/02 09:48:15;;;;;;;9.93;3.20;;;;;;;33.53;35.15;98471.16;4961983;28;20037;-72
2022/09/02 09:50:42;;;;;;;10.73;3.00;;;;;;;33.49;35.35;98464.66;4995364;28;20466;-73
2022/09/02 09:53:24;;;;;;;5.80;3.00;;;;;;;33.51;34.91;98466.03;4962389;28;20038;-73
2022/09/02 09:56:05;;;;;;;5.90;2.72;;;;;;;33.85;34.49;98465.38;4961806;28;20078;-73
2022/09/02 09:58:33;;;;;;;4.65;2.72;;;;;;;34.04;34.46;98459.38;4961713;28;20034;-73
2022/09/02 10:00:59;;;;;;;5.43;2.65;;;;;;;34.09;34.21;98453.91;4977952;28;20026;-73
2022/09/02 10:03:28;;;;;;;6.15;2.90;;;;;;;34.12;34.00;98463.41;4945747;28;20046;-75
2022/09/02 10:05:57;;;;;;;4.78;2.80;;;;;;;33.99;34.33;98460.19;4962043;28;20053;-75
2022/09/02 10:08:25;;;;;;;4.90;2.85;;;;;;;33.95;34.49;98463.72;4961898;28;20034;-72
2022/09/02 10:11:01;;;;;;;5.65;2.80;;;;;;;33.93;34.83;98453.19;4961804;28;20526;-71
2022/09/02 10:13:31;;;;;;;4.80;2.70;;;;;;;34.32;34.41;98451.69;4977663;28;20038;-73
2022/09/02 10:16:03;;;;;;;6.60;2.90;;;;;;;34.54;33.71;98456.69;4960796;28;20038;-73
2022/09/02 10:18:41;;;;;;;4.32;2.60;;;;;;;34.80;33.34;98454.63;4977360;28;20043;-75
2022/09/02 10:21:13;;;;;;;6.75;3.03;;;;;;;35.00;32.81;98450.94;4977652;28;20125;-73
2022/09/02 10:23:41;;;;;;;5.00;2.58;;;;;;;35.14;32.87;98440.25;4961351;28;20050;-74
2022/09/02 10:26:36;;;;;;;5.85;3.00;;;;;;;34.91;33.22;98448.00;4976671;28;20057;-77
2022/09/02 10:29:08;;;;;;;4.65;2.63;;;;;;;34.77;32.95;98445.13;4947170;28;20104;-78
2022/09/02 10:32:09;;;;;;;3.42;2.58;;;;;;;34.69;33.66;98445.72;4994645;28;20026;-75
2022/09/02 10:34:54;;;;;;;4.63;2.80;;;;;;;34.58;33.86;98442.25;4976797;28;20117;-79
2022/09/02 10:37:23;;;;;;;4.78;2.95;;;;;;;34.73;33.21;98441.34;4962575;28;20026;-76
2022/09/02 10:40:07;;;;;;;3.63;2.60;;;;;;;34.88;33.14;98442.34;4945200;28;20034;-78
2022/09/02 10:42:57;;;;;;;3.92;2.45;;;;;;;34.67;33.62;98447.91;4977200;28;20073;-76
2022/09/02 10:45:46;;;;;;;13.27;2.90;;;;;;;34.61;34.41;98443.63;4961031;28;20109;-75
2022/09/02 10:49:06;;;;;;;6.07;2.70;;;;;;;34.44;34.32;98444.00;4949710;28;20034;-75
2022/09/02 10:51:36;;;;;;;9.48;3.08;;;;;;;34.33;34.67;98445.97;4898391;29;20115;-73
2022/09/02 10:54:29;;;;;;;4.05;2.60;;;;;;;34.22;34.25;98433.53;4913590;29;20036;-75
2022/09/02 10:57:03;;;;;;;4.90;2.80;;;;;;;34.24;34.55;98424.06;4897840;29;20040;-73
2022/09/02 10:59:30;;;;;;;6.25;2.78;;;;;;;34.35;34.10;98432.13;4882853;29;20084;-74
2022/09/02 11:01:59;;;;;;;4.40;2.58;;;;;;;34.37;34.23;98417.22;4913752;29;20036;-74
2022/09/02 11:04:36;;;;;;;5.03;2.88;;;;;;;34.55;33.89;98421.16;4882184;29;20043;-73
2022/09/02 11:07:03;;;;;;;5.95;3.00;;;;;;;34.63;34.23;98419.75;4884108;29;20516;-72
2022/09/02 11:09:42;;;;;;;8.52;3.17;;;;;;;34.67;33.87;98404.53;4899582;29;20115;-73
2022/09/02 11:12:20;;;;;;;4.03;2.80;;;;;;;34.74;33.70;98401.50;4884472;29;20044;-72
2022/09/02 11:15:00;;;;;;;4.53;2.90;;;;;;;34.78;33.98;98392.53;4884435;29;20095;-74
2022/09/02 11:18:01;;;;;;;5.75;3.00;;;;;;;34.77;33.56;98393.63;4915030;29;20060;-73
2022/09/02 11:20:37;;;;;;;6.90;3.00;;;;;;;34.76;33.61;98383.06;4877172;29;20130;-74
2022/09/02 11:23:11;;;;;;;7.20;2.90;;;;;;;34.58;34.35;98387.25;4861726;29;20052;-74
2022/09/02 11:26:14;;;;;;;4.68;2.80;;;;;;;34.44;33.73;98389.81;4915404;29;20263;-72
2022/09/02 11:28:45;;;;;;;4.57;2.70;;;;;;;34.30;33.91;98392.38;4917448;29;20460;-73
2022/09/02 11:31:23;;;;;;;8.10;2.70;;;;;;;34.17;34.25;98391.03;4917828;29;20125;-72
2022/09/02 11:33:59;;;;;;;7.00;3.00;;;;;;;34.19;34.05;98401.59;4887245;29;20031;-72
2022/09/02 11:36:25;;;;;;;4.28;2.75;;;;;;;34.15;34.59;98404.06;4918046;29;20182;-73
2022/09/02 11:39:07;;;;;;;5.97;2.92;;;;;;;34.06;34.34;98394.91;4917852;29;20576;-72
2022/09/02 11:42:06;;;;;;;4.53;2.90;;;;;;;34.01;34.72;98400.34;4901837;29;20039;-73
2022/09/02 11:44:49;;;;;;;5.78;2.70;;;;;;;33.91;34.77;98384.19;4917693;29;20592;-74